Time;durP1;ratioP1;P1;durP2;ratioP2;P2;SDS_P1;SDS_P2;PMS_P1;PMS_P2;Temp;Humidity;BMP_temperature;BMP_pressure;BME280_temperature;BME280_humidity;BME280_pressure;Samples;Min_cycle;Max_cycle;Signal;HPM_P1;HPM_P2
2023/03/10 00:01:31;;;;;;;4.57;1.70;;;;;;;;;;5013776;28;20034;-80
2023/03/10 00:03:59;;;;;;;6.23;1.73;;;;;;;;;;5013710;28;20666;-80
2023/03/10 00:06:27;;;;;;;8.93;2.33;;;;;;;;;;5011967;28;20393;-79
2023/03/10 00:08:54;;;;;;;10.37;2.03;;;;;;;;;;5013676;28;20025;-82
2023/03/10 00:11:19;;;;;;;4.53;1.77;;;;;;;;;;5013513;28;20037;-80
2023/03/10 00:13:45;;;;;;;3.47;1.60;;;;;;;;;;5012981;28;20053;-81
2023/03/10 00:16:18;;;;;;;4.73;2.10;;;;;;;;;;5013434;28;20254;-81
2023/03/10 00:18:45;;;;;;;8.10;2.43;;;;;;;;;;5011521;28;20025;-83
2023/03/10 00:21:18;;;;;;;7.07;2.40;;;;;;;;;;5011513;28;20482;-82
2023/03/10 00:23:43;;;;;;;6.23;2.53;;;;;;;;;;5012540;28;20033;-82
2023/03/10 00:26:11;;;;;;;3.77;1.87;;;;;;;;;;5013362;28;20052;-80
2023/03/10 00:28:37;;;;;;;5.30;2.00;;;;;;;;;;5013156;28;20076;-81
2023/03/10 00:31:06;;;;;;;5.83;2.47;;;;;;;;;;5012206;28;20050;-81
2023/03/10 00:33:33;;;;;;;4.90;2.00;;;;;;;;;;5012562;28;20061;-81
2023/03/10 00:36:09;;;;;;;5.27;1.90;;;;;;;;;;5013339;28;20083;-78
2023/03/10 00:38:35;;;;;;;8.63;2.03;;;;;;;;;;5013192;28;20021;-82
2023/03/10 00:41:05;;;;;;;6.50;2.03;;;;;;;;;;5011191;28;20152;-82
2023/03/10 00:43:30;;;;;;;5.77;2.17;;;;;;;;;;5013922;28;20037;-82
2023/03/10 00:45:56;;;;;;;8.53;2.57;;;;;;;;;;5012393;28;20366;-82
2023/03/10 00:48:22;;;;;;;5.63;2.40;;;;;;;;;;5013393;28;20050;-82
2023/03/10 00:50:47;;;;;;;7.13;2.60;;;;;;;;;;5012048;28;20030;-82
2023/03/10 00:53:13;;;;;;;6.50;1.93;;;;;;;;;;5011353;28;20026;-81
2023/03/10 00:55:39;;;;;;;7.07;2.17;;;;;;;;;;5012173;28;20026;-81
2023/03/10 00:58:04;;;;;;;6.13;1.70;;;;;;;;;;5013381;28;20121;-81
2023/03/10 01:00:30;;;;;;;5.13;1.90;;;;;;;;;;5013176;28;20045;-80
2023/03/10 01:02:56;;;;;;;6.37;1.73;;;;;;;;;;5013304;28;20117;-80
2023/03/10 01:05:22;;;;;;;3.80;2.17;;;;;;;;;;5012861;28;20025;-80
2023/03/10 01:07:47;;;;;;;5.70;1.77;;;;;;;;;;5012234;28;20034;-81
2023/03/10 01:10:13;;;;;;;7.10;2.30;;;;;;;;;;5011539;28;20032;-81
2023/03/10 01:12:38;;;;;;;4.85;1.52;;;;;;;;;;5011035;28;20032;-82
2023/03/10 01:15:05;;;;;;;4.57;1.70;;;;;;;;;;5011512;28;20032;-81
2023/03/10 01:17:31;;;;;;;5.63;2.00;;;;;;;;;;5012389;28;20034;-81
2023/03/10 01:19:56;;;;;;;7.33;2.00;;;;;;;;;;5011342;28;20092;-81
2023/03/10 01:22:22;;;;;;;4.43;2.47;;;;;;;;;;5011613;28;20041;-81
2023/03/10 01:24:48;;;;;;;4.18;1.90;;;;;;;;;;5012437;28;20065;-81
2023/03/10 01:27:13;;;;;;;4.60;1.80;;;;;;;;;;5011438;28;20026;-82
2023/03/10 01:29:39;;;;;;;5.77;1.70;;;;;;;;;;5010505;28;20053;-81
2023/03/10 01:32:05;;;;;;;6.67;2.50;;;;;;;;;;5012308;28;20022;-82
2023/03/10 01:34:31;;;;;;;6.10;2.17;;;;;;;;;;5010515;28;20408;-79
2023/03/10 01:36:56;;;;;;;8.47;2.47;;;;;;;;;;5012562;28;20037;-79
2023/03/10 01:39:22;;;;;;;6.40;1.90;;;;;;;;;;5007127;28;20026;-79
2023/03/10 01:41:47;;;;;;;5.77;1.80;;;;;;;;;;5010560;28;20030;-80
2023/03/10 01:44:17;;;;;;;4.77;1.97;;;;;;;;;;5011278;28;20033;-80
2023/03/10 01:46:51;;;;;;;6.70;1.70;;;;;;;;;;5011929;28;20077;-81
2023/03/10 01:49:19;;;;;;;5.37;1.60;;;;;;;;;;5011660;28;20030;-81
2023/03/10 01:51:52;;;;;;;5.65;1.98;;;;;;;;;;5010347;28;20506;-80
2023/03/10 01:54:24;;;;;;;4.60;1.90;;;;;;;;;;5011432;28;20454;-81
2023/03/10 01:56:51;;;;;;;5.32;1.85;;;;;;;;;;5011641;28;20034;-80
2023/03/10 01:59:17;;;;;;;5.13;1.93;;;;;;;;;;5011485;28;20411;-80
2023/03/10 02:01:42;;;;;;;4.23;1.80;;;;;;;;;;5010351;28;20105;-80
2023/03/10 02:04:17;;;;;;;5.25;1.50;;;;;;;;;;5013120;28;20048;-82
2023/03/10 02:06:46;;;;;;;5.10;1.93;;;;;;;;;;5010470;28;20064;-80
2023/03/10 02:09:13;;;;;;;3.67;1.77;;;;;;;;;;5010661;28;20292;-79
2023/03/10 02:11:38;;;;;;;5.97;2.42;;;;;;;;;;5011084;28;20508;-80
2023/03/10 02:14:05;;;;;;;9.38;2.38;;;;;;;;;;5012680;28;20026;-81
2023/03/10 02:16:31;;;;;;;4.33;2.17;;;;;;;;;;5009782;28;20486;-81
2023/03/10 02:18:57;;;;;;;7.03;1.80;;;;;;;;;;5010388;28;20022;-80
2023/03/10 02:21:39;;;;;;;5.27;1.73;;;;;;;;;;5009959;28;20030;-81
2023/03/10 02:24:07;;;;;;;6.85;1.67;;;;;;;;;;5011480;28;20037;-81
2023/03/10 02:27:00;;;;;;;3.83;1.90;;;;;;;;;;5008538;28;20030;-81
2023/03/10 02:29:32;;;;;;;5.07;1.70;;;;;;;;;;5009006;28;20124;-81
2023/03/10 02:31:58;;;;;;;5.18;1.90;;;;;;;;;;5010918;28;20063;-81
2023/03/10 02:34:25;;;;;;;3.08;1.42;;;;;;;;;;5009822;28;20061;-78
2023/03/10 02:36:52;;;;;;;4.57;2.33;;;;;;;;;;5009895;28;20382;-80
2023/03/10 02:39:18;;;;;;;4.68;1.63;;;;;;;;;;5009977;28;20033;-80
2023/03/10 02:41:43;;;;;;;3.80;1.93;;;;;;;;;;5011055;28;20025;-80
2023/03/10 02:44:12;;;;;;;3.13;1.30;;;;;;;;;;5009709;28;20116;-83
2023/03/10 02:46:38;;;;;;;4.72;1.85;;;;;;;;;;5006456;28;20030;-82
2023/03/10 02:49:09;;;;;;;3.97;1.53;;;;;;;;;;4991736;28;20387;-79
2023/03/10 02:51:39;;;;;;;7.13;2.07;;;;;;;;;;5009527;28;20520;-80
2023/03/10 02:54:07;;;;;;;4.27;1.77;;;;;;;;;;5009864;28;20107;-81
2023/03/10 02:56:33;;;;;;;5.63;1.70;;;;;;;;;;5011438;28;20022;-81
2023/03/10 02:58:59;;;;;;;6.83;2.37;;;;;;;;;;5010291;28;20160;-83
2023/03/10 03:01:25;;;;;;;4.40;1.70;;;;;;;;;;5011508;28;20061;-81
2023/03/10 03:03:52;;;;;;;4.10;1.90;;;;;;;;;;5011111;28;20034;-80
2023/03/10 03:06:17;;;;;;;7.00;1.90;;;;;;;;;;5008935;28;20026;-82
2023/03/10 03:08:43;;;;;;;4.35;1.60;;;;;;;;;;5009670;28;20033;-82
2023/03/10 03:11:09;;;;;;;5.32;2.03;;;;;;;;;;5011822;28;20026;-82
2023/03/10 03:13:34;;;;;;;4.53;1.47;;;;;;;;;;5014634;28;20034;-82
2023/03/10 03:16:00;;;;;;;2.40;1.50;;;;;;;;;;5014384;28;20025;-82
2023/03/10 03:18:25;;;;;;;8.73;2.00;;;;;;;;;;5015095;28;20038;-79
2023/03/10 03:20:51;;;;;;;4.80;1.60;;;;;;;;;;5014222;28;20029;-82
2023/03/10 03:23:16;;;;;;;7.00;1.73;;;;;;;;;;5013500;28;20025;-81
2023/03/10 03:25:42;;;;;;;6.37;1.67;;;;;;;;;;5014289;28;20053;-81
2023/03/10 03:28:10;;;;;;;3.97;1.47;;;;;;;;;;5012508;28;20029;-81
2023/03/10 03:30:36;;;;;;;3.70;1.80;;;;;;;;;;4996570;28;20072;-80
2023/03/10 03:33:03;;;;;;;3.10;2.30;;;;;;;;;;5012942;28;20025;-81
2023/03/10 03:35:32;;;;;;;5.07;1.93;;;;;;;;;;5012627;28;20121;-81
2023/03/10 03:37:58;;;;;;;4.30;1.77;;;;;;;;;;5014313;28;20049;-80
2023/03/10 03:40:26;;;;;;;5.80;1.47;;;;;;;;;;5010726;28;20053;-80
2023/03/10 03:42:53;;;;;;;4.90;1.50;;;;;;;;;;5011890;28;20045;-81
2023/03/10 03:45:22;;;;;;;4.07;1.23;;;;;;;;;;4994384;28;20041;-80
2023/03/10 03:47:48;;;;;;;2.10;1.25;;;;;;;;;;4994675;28;20056;-81
2023/03/10 03:50:16;;;;;;;9.33;2.30;;;;;;;;;;5000910;28;20037;-80
2023/03/10 03:52:42;;;;;;;5.07;2.07;;;;;;;;;;4997634;28;20045;-81
2023/03/10 03:55:09;;;;;;;3.10;1.40;;;;;;;;;;5013641;28;20026;-81
2023/03/10 03:57:34;;;;;;;6.80;1.53;;;;;;;;;;5015751;28;20045;-81
2023/03/10 04:00:00;;;;;;;4.07;1.50;;;;;;;;;;5015553;28;20064;-81
2023/03/10 04:02:26;;;;;;;1.90;1.10;;;;;;;;;;5014085;28;20120;-80
2023/03/10 04:04:54;;;;;;;4.35;1.30;;;;;;;;;;5012638;28;20096;-81
2023/03/10 04:07:20;;;;;;;7.97;1.40;;;;;;;;;;5013513;28;20061;-81
2023/03/10 04:09:45;;;;;;;5.47;1.73;;;;;;;;;;5014743;28;20069;-80
2023/03/10 04:12:11;;;;;;;3.73;1.57;;;;;;;;;;4995287;28;20037;-81
2023/03/10 04:14:36;;;;;;;9.20;1.53;;;;;;;;;;4994963;28;20426;-80
2023/03/10 04:17:04;;;;;;;6.03;1.70;;;;;;;;;;5013293;28;20109;-81
2023/03/10 04:19:29;;;;;;;8.03;1.63;;;;;;;;;;5011766;28;20029;-81
2023/03/10 04:21:55;;;;;;;5.37;1.47;;;;;;;;;;5011396;28;20049;-82
2023/03/10 04:24:20;;;;;;;2.53;0.93;;;;;;;;;;5012397;28;20113;-82
2023/03/10 04:26:46;;;;;;;4.80;1.63;;;;;;;;;;5012994;28;20033;-81
2023/03/10 04:29:12;;;;;;;3.83;1.40;;;;;;;;;;5012062;28;20532;-81
2023/03/10 04:31:37;;;;;;;6.30;1.60;;;;;;;;;;5013001;28;20125;-81
2023/03/10 04:34:03;;;;;;;3.53;1.30;;;;;;;;;;5013072;28;20093;-81
2023/03/10 04:36:29;;;;;;;3.50;1.47;;;;;;;;;;5013052;28;20034;-81
2023/03/10 04:38:54;;;;;;;4.63;1.70;;;;;;;;;;5013192;28;20021;-81
2023/03/10 04:41:20;;;;;;;4.03;1.33;;;;;;;;;;5013461;28;20045;-81
2023/03/10 04:43:45;;;;;;;3.67;1.30;;;;;;;;;;5014315;28;20061;-81
2023/03/10 04:46:11;;;;;;;9.30;1.67;;;;;;;;;;5012614;28;20108;-78
2023/03/10 04:48:37;;;;;;;5.87;1.30;;;;;;;;;;5012503;28;20034;-81
2023/03/10 04:51:06;;;;;;;4.78;1.75;;;;;;;;;;5012109;28;20121;-81
2023/03/10 04:53:32;;;;;;;4.15;1.33;;;;;;;;;;5013720;28;20489;-81
2023/03/10 04:55:58;;;;;;;6.80;2.03;;;;;;;;;;5011619;28;20152;-81
2023/03/10 04:58:24;;;;;;;7.70;1.60;;;;;;;;;;5013125;28;20033;-81
2023/03/10 05:00:50;;;;;;;3.53;1.73;;;;;;;;;;5012720;28;20386;-80
2023/03/10 05:03:15;;;;;;;3.57;1.37;;;;;;;;;;5012830;28;20140;-81
2023/03/10 05:05:42;;;;;;;3.50;1.80;;;;;;;;;;5010599;28;20022;-81
2023/03/10 05:08:08;;;;;;;3.63;1.07;;;;;;;;;;5013907;28;20383;-80
2023/03/10 05:10:34;;;;;;;5.78;1.42;;;;;;;;;;5011593;28;20351;-81
2023/03/10 05:13:00;;;;;;;2.83;1.00;;;;;;;;;;5013667;28;20045;-82
2023/03/10 05:15:25;;;;;;;6.43;1.20;;;;;;;;;;5013128;28;20022;-80
2023/03/10 05:17:51;;;;;;;3.22;0.90;;;;;;;;;;5011085;28;20025;-80
2023/03/10 05:20:16;;;;;;;5.53;1.42;;;;;;;;;;5010907;28;20486;-81
2023/03/10 05:22:42;;;;;;;7.72;1.80;;;;;;;;;;5010688;28;20034;-80
2023/03/10 05:25:09;;;;;;;2.90;1.30;;;;;;;;;;5011462;28;20029;-81
2023/03/10 05:27:36;;;;;;;5.07;1.10;;;;;;;;;;5010884;28;20029;-80
2023/03/10 05:30:04;;;;;;;8.02;1.60;;;;;;;;;;5010181;28;20030;-80
2023/03/10 05:32:29;;;;;;;5.55;1.45;;;;;;;;;;5010231;28;20029;-80
2023/03/10 05:34:55;;;;;;;7.45;1.52;;;;;;;;;;5009853;28;20128;-81
2023/03/10 05:37:21;;;;;;;3.83;1.23;;;;;;;;;;5012388;28;20057;-81
2023/03/10 05:39:46;;;;;;;6.55;1.27;;;;;;;;;;5005422;28;20136;-80
2023/03/10 05:42:12;;;;;;;3.38;1.20;;;;;;;;;;5005390;28;20118;-81
2023/03/10 05:44:38;;;;;;;12.73;1.60;;;;;;;;;;5000247;28;20038;-79
2023/03/10 05:47:05;;;;;;;6.25;2.03;;;;;;;;;;5010459;28;20029;-79
2023/03/10 05:49:31;;;;;;;3.20;1.13;;;;;;;;;;5011617;28;20026;-83
2023/03/10 05:51:57;;;;;;;20.65;2.85;;;;;;;;;;5011587;28;20042;-82
2023/03/10 05:54:23;;;;;;;7.13;1.25;;;;;;;;;;5010640;28;20061;-82
2023/03/10 05:56:48;;;;;;;8.80;1.90;;;;;;;;;;5012675;28;20135;-81
2023/03/10 05:59:14;;;;;;;5.65;1.35;;;;;;;;;;5011896;28;20042;-83
2023/03/10 06:01:39;;;;;;;8.10;1.40;;;;;;;;;;5009468;28;20104;-84
2023/03/10 06:04:05;;;;;;;4.68;1.58;;;;;;;;;;5008533;28;20427;-84
2023/03/10 06:06:33;;;;;;;5.07;1.45;;;;;;;;;;5002044;28;20030;-81
2023/03/10 06:08:59;;;;;;;5.97;1.50;;;;;;;;;;5000197;28;20022;-81
2023/03/10 06:11:27;;;;;;;7.68;1.85;;;;;;;;;;5007275;28;20099;-82
2023/03/10 06:13:52;;;;;;;7.05;2.30;;;;;;;;;;5012063;28;20025;-80
2023/03/10 06:16:18;;;;;;;4.93;1.95;;;;;;;;;;5000684;28;20909;-78
2023/03/10 06:18:45;;;;;;;6.80;2.00;;;;;;;;;;5005172;28;20022;-78
2023/03/10 06:21:13;;;;;;;8.32;1.70;;;;;;;;;;5010386;28;20065;-79
2023/03/10 06:23:39;;;;;;;3.55;1.60;;;;;;;;;;4998223;28;20022;-83
2023/03/10 06:26:12;;;;;;;9.23;1.92;;;;;;;;;;5005301;28;20398;-84
2023/03/10 06:28:39;;;;;;;5.38;1.30;;;;;;;;;;5010227;28;20037;-82
2023/03/10 06:31:08;;;;;;;6.40;1.30;;;;;;;;;;5010111;28;20040;-80
2023/03/10 06:33:37;;;;;;;5.70;1.67;;;;;;;;;;5017290;28;20026;-87
2023/03/10 06:36:03;;;;;;;6.70;1.83;;;;;;;;;;5018833;28;20509;-84
2023/03/10 06:38:29;;;;;;;3.92;1.75;;;;;;;;;;5012266;28;20401;-78
2023/03/10 06:40:56;;;;;;;3.50;1.67;;;;;;;;;;5005594;28;20493;-81
2023/03/10 06:43:23;;;;;;;5.68;1.77;;;;;;;;;;5012250;28;20490;-82
2023/03/10 06:45:49;;;;;;;5.88;1.80;;;;;;;;;;5004065;28;20132;-83
2023/03/10 06:48:16;;;;;;;7.25;1.80;;;;;;;;;;5008766;28;20116;-88
2023/03/10 06:50:48;;;;;;;5.43;1.65;;;;;;;;;;5017106;28;20030;-84
2023/03/10 06:53:17;;;;;;;4.78;1.75;;;;;;;;;;5024295;28;20032;-86
2023/03/10 06:55:42;;;;;;;6.63;1.58;;;;;;;;;;5018967;28;20026;-83
2023/03/10 06:58:08;;;;;;;2.67;0.60;;;;;;;;;;5018385;28;20124;-83
2023/03/10 07:00:33;;;;;;;2.00;0.70;;;;;;;;;;5013951;28;20136;-87
2023/03/10 07:02:59;;;;;;;1.50;0.77;;;;;;;;;;5017260;28;20028;-85
2023/03/10 07:05:26;;;;;;;3.45;0.80;;;;;;;;;;5035493;28;20033;-85
2023/03/10 07:07:53;;;;;;;1.77;0.80;;;;;;;;;;5019475;28;20030;-85
2023/03/10 07:10:18;;;;;;;2.33;0.90;;;;;;;;;;5024690;28;21168;-82
2023/03/10 07:12:44;;;;;;;3.03;0.73;;;;;;;;;;5017410;28;20038;-84
2023/03/10 07:15:10;;;;;;;1.65;0.65;;;;;;;;;;5018108;28;20102;-82
2023/03/10 07:17:36;;;;;;;1.00;0.50;;;;;;;;;;5011565;28;20045;-83
2023/03/10 07:20:03;;;;;;;4.18;0.82;;;;;;;;;;5017112;28;20041;-84
2023/03/10 07:22:29;;;;;;;2.33;0.80;;;;;;;;;;5017028;28;20045;-84
2023/03/10 07:24:55;;;;;;;3.75;1.00;;;;;;;;;;5015424;28;20374;-85
2023/03/10 07:27:21;;;;;;;3.35;0.82;;;;;;;;;;5013847;28;20037;-85
2023/03/10 07:29:47;;;;;;;2.15;0.77;;;;;;;;;;5017157;28;20017;-83
2023/03/10 07:32:14;;;;;;;3.70;0.75;;;;;;;;;;5020015;28;20073;-81
2023/03/10 07:34:40;;;;;;;2.88;0.70;;;;;;;;;;4999953;28;20026;-85
2023/03/10 07:37:05;;;;;;;2.13;0.80;;;;;;;;;;5018634;28;20100;-85
2023/03/10 07:39:31;;;;;;;1.10;0.68;;;;;;;;;;5015237;28;20026;-83
2023/03/10 07:41:58;;;;;;;4.57;0.77;;;;;;;;;;5016496;28;20026;-86
2023/03/10 07:44:24;;;;;;;4.10;0.80;;;;;;;;;;5012720;28;20036;-85
2023/03/10 07:46:51;;;;;;;1.40;0.60;;;;;;;;;;5018759;28;20026;-84
2023/03/10 07:49:17;;;;;;;2.08;0.80;;;;;;;;;;5013311;28;20090;-82
2023/03/10 07:51:43;;;;;;;1.60;0.57;;;;;;;;;;5018709;28;20022;-85
2023/03/10 07:54:10;;;;;;;4.03;1.02;;;;;;;;;;5017081;28;20167;-83
2023/03/10 07:56:36;;;;;;;2.20;0.93;;;;;;;;;;5013212;28;20030;-83
2023/03/10 07:59:01;;;;;;;1.23;0.80;;;;;;;;;;5018641;28;20091;-83
2023/03/10 08:01:27;;;;;;;10.52;2.45;;;;;;;;;;5014370;28;20026;-85
2023/03/10 08:03:54;;;;;;;2.65;1.25;;;;;;;;;;5000362;28;20469;-84
2023/03/10 08:06:25;;;;;;;4.13;0.82;;;;;;;;;;5014500;28;20496;-86
2023/03/10 08:08:51;;;;;;;6.68;1.25;;;;;;;;;;5006664;28;20038;-81
2023/03/10 08:11:17;;;;;;;2.90;0.68;;;;;;;;;;5012948;28;20815;-82
2023/03/10 08:13:46;;;;;;;4.65;1.05;;;;;;;;;;5006413;28;20231;-84
2023/03/10 08:16:14;;;;;;;1.90;0.70;;;;;;;;;;4997719;28;20124;-85
2023/03/10 08:18:40;;;;;;;3.38;0.98;;;;;;;;;;5018208;28;20037;-84
2023/03/10 08:21:07;;;;;;;1.10;0.65;;;;;;;;;;5011329;28;20046;-85
2023/03/10 08:23:35;;;;;;;2.55;1.00;;;;;;;;;;5010171;28;20034;-85
2023/03/10 08:26:07;;;;;;;3.42;0.88;;;;;;;;;;5008603;28;20036;-86
2023/03/10 08:28:34;;;;;;;3.50;1.23;;;;;;;;;;5011053;28;20026;-83
2023/03/10 08:31:24;;;;;;;2.55;0.95;;;;;;;;;;5005732;28;20074;-85
2023/03/10 08:33:58;;;;;;;1.52;1.02;;;;;;;;;;5007772;28;20049;-85
2023/03/10 08:36:28;;;;;;;4.05;0.80;;;;;;;;;;5020313;28;20043;-86
2023/03/10 08:38:59;;;;;;;4.75;1.02;;;;;;;;;;5013749;28;20030;-87
2023/03/10 08:41:26;;;;;;;1.63;0.52;;;;;;;;;;5012651;28;20057;-84
2023/03/10 08:43:53;;;;;;;4.13;1.10;;;;;;;;;;5012482;28;20096;-87
2023/03/10 08:46:20;;;;;;;3.45;0.60;;;;;;;;;;5009762;28;20061;-83
2023/03/10 08:48:46;;;;;;;0.68;0.68;;;;;;;;;;5005722;28;20038;-85
2023/03/10 08:51:13;;;;;;;3.67;0.80;;;;;;;;;;5003829;28;21628;-82
2023/03/10 08:53:39;;;;;;;2.85;0.88;;;;;;;;;;5003351;28;20034;-85
2023/03/10 08:56:06;;;;;;;3.28;0.68;;;;;;;;;;5005281;28;20851;-84
2023/03/10 08:58:32;;;;;;;4.70;1.30;;;;;;;;;;5018454;28;20078;-84
2023/03/10 09:00:58;;;;;;;1.50;0.93;;;;;;;;;;5007395;28;20525;-82
2023/03/10 09:03:25;;;;;;;2.10;0.88;;;;;;;;;;5008585;28;20054;-85
2023/03/10 09:05:50;;;;;;;5.65;1.27;;;;;;;;;;5007851;28;20117;-83
2023/03/10 09:08:16;;;;;;;2.97;0.77;;;;;;;;;;5025032;28;20505;-84
2023/03/10 09:10:43;;;;;;;0.70;0.70;;;;;;;;;;5004748;28;20022;-82
2023/03/10 09:13:10;;;;;;;1.58;0.65;;;;;;;;;;4992577;28;20037;-82
2023/03/10 09:15:39;;;;;;;3.72;0.90;;;;;;;;;;4985364;28;20030;-81
2023/03/10 09:18:07;;;;;;;5.32;0.95;;;;;;;;;;4992082;28;20045;-81
2023/03/10 09:20:33;;;;;;;2.47;0.80;;;;;;;;;;5007591;28;20059;-85
2023/03/10 09:22:58;;;;;;;0.73;0.60;;;;;;;;;;5003320;28;20103;-84
2023/03/10 09:25:24;;;;;;;2.22;0.60;;;;;;;;;;5006756;28;20479;-82
2023/03/10 09:27:49;;;;;;;1.88;0.90;;;;;;;;;;5005308;28;20642;-83
2023/03/10 09:30:16;;;;;;;1.60;0.68;;;;;;;;;;5003131;28;20022;-82
2023/03/10 09:32:43;;;;;;;1.00;0.52;;;;;;;;;;5005270;28;20050;-82
2023/03/10 09:35:11;;;;;;;0.82;0.60;;;;;;;;;;5011931;28;20498;-82
2023/03/10 09:37:37;;;;;;;3.00;0.88;;;;;;;;;;5008265;28;20046;-83
2023/03/10 09:40:04;;;;;;;3.25;1.00;;;;;;;;;;5015440;28;20048;-86
2023/03/10 09:42:34;;;;;;;1.27;0.57;;;;;;;;;;5012988;28;20030;-84
2023/03/10 09:45:22;;;;;;;3.38;0.85;;;;;;;;;;5017800;28;20021;-83
2023/03/10 09:48:12;;;;;;;3.30;0.80;;;;;;;;;;5008542;28;20433;-83
2023/03/10 09:50:42;;;;;;;2.55;0.75;;;;;;;;;;5009225;28;20117;-82
2023/03/10 09:53:26;;;;;;;2.03;0.60;;;;;;;;;;5009020;28;20033;-82
2023/03/10 09:55:53;;;;;;;1.83;0.65;;;;;;;;;;5027569;28;20121;-85
2023/03/10 09:58:48;;;;;;;1.67;0.65;;;;;;;;;;5027626;28;20032;-86
2023/03/10 10:01:20;;;;;;;2.88;0.75;;;;;;;;;;5012194;28;20031;-85
2023/03/10 10:03:55;;;;;;;1.55;0.40;;;;;;;;;;5015518;28;20021;-81
2023/03/10 10:06:37;;;;;;;2.70;1.10;;;;;;;;;;4993632;28;20084;-85
2023/03/10 10:09:23;;;;;;;3.10;0.80;;;;;;;;;;5021348;28;20116;-84
2023/03/10 10:11:49;;;;;;;4.15;0.55;;;;;;;;;;5009789;28;20068;-82
2023/03/10 10:14:20;;;;;;;0.60;0.43;;;;;;;;;;5008131;28;20022;-83
2023/03/10 10:17:07;;;;;;;0.70;0.68;;;;;;;;;;5010680;28;20484;-86
2023/03/10 10:19:34;;;;;;;4.97;1.00;;;;;;;;;;5010038;28;20033;-81
2023/03/10 10:22:14;;;;;;;3.95;1.23;;;;;;;;;;5009695;28;20029;-84
2023/03/10 10:24:40;;;;;;;2.03;0.80;;;;;;;;;;5008782;28;20409;-84
2023/03/10 10:27:06;;;;;;;0.60;0.50;;;;;;;;;;5008293;28;20094;-83
2023/03/10 10:29:41;;;;;;;1.77;0.68;;;;;;;;;;5010053;28;20060;-86
2023/03/10 10:32:14;;;;;;;2.55;0.95;;;;;;;;;;5007816;28;20030;-81
2023/03/10 10:34:42;;;;;;;1.48;0.77;;;;;;;;;;5004792;28;20124;-82
2023/03/10 10:37:25;;;;;;;1.17;0.43;;;;;;;;;;5006065;28;20029;-82
2023/03/10 10:39:53;;;;;;;1.50;0.50;;;;;;;;;;5003942;28;20042;-82
2023/03/10 10:42:23;;;;;;;0.93;0.50;;;;;;;;;;5007773;28;20034;-82
2023/03/10 10:44:57;;;;;;;3.60;0.68;;;;;;;;;;5007870;28;20025;-83
2023/03/10 10:47:34;;;;;;;2.08;0.50;;;;;;;;;;5008994;28;20533;-85
2023/03/10 10:50:18;;;;;;;2.60;0.63;;;;;;;;;;5004861;28;20026;-81
2023/03/10 10:52:48;;;;;;;2.08;0.90;;;;;;;;;;5010821;28;20038;-82
2023/03/10 10:55:33;;;;;;;6.15;1.38;;;;;;;;;;5007590;28;20040;-81
2023/03/10 10:58:01;;;;;;;1.38;0.40;;;;;;;;;;5020583;28;20026;-85
2023/03/10 11:00:36;;;;;;;2.15;0.55;;;;;;;;;;5017585;28;20056;-86
2023/03/10 11:03:37;;;;;;;2.65;0.50;;;;;;;;;;5004807;28;20029;-82
2023/03/10 11:06:28;;;;;;;1.33;0.85;;;;;;;;;;5006214;28;20433;-82
2023/03/10 11:09:07;;;;;;;1.30;1.00;;;;;;;;;;5013660;28;21330;-87
2023/03/10 11:11:51;;;;;;;3.78;0.60;;;;;;;;;;5007521;28;20439;-84
2023/03/10 11:14:48;;;;;;;4.07;0.60;;;;;;;;;;5024737;28;20018;-84
2023/03/10 11:17:32;;;;;;;4.35;0.47;;;;;;;;;;5011557;28;20042;-85
2023/03/10 11:20:11;;;;;;;2.03;0.80;;;;;;;;;;5004064;28;20018;-84
2023/03/10 11:22:53;;;;;;;3.17;0.90;;;;;;;;;;5025773;28;20052;-86
2023/03/10 11:25:28;;;;;;;3.22;1.58;;;;;;;;;;5005834;28;20030;-85
2023/03/10 11:28:13;;;;;;;3.63;1.02;;;;;;;;;;5009118;28;20045;-84
2023/03/10 11:30:52;;;;;;;4.00;1.00;;;;;;;;;;5014995;28;20064;-82
2023/03/10 11:33:34;;;;;;;2.30;0.45;;;;;;;;;;5015573;28;20041;-85
2023/03/10 11:36:06;;;;;;;;;;;;;;;;;;5006135;28;20028;-85
2023/03/10 11:38:36;;;;;;;3.22;0.85;;;;;;;;;;5016597;28;19925;-85
2023/03/10 11:41:24;;;;;;;1.90;0.70;;;;;;;;;;5017071;28;20604;-82
2023/03/10 11:44:11;;;;;;;2.17;0.50;;;;;;;;;;5015968;28;20041;-84
2023/03/10 11:46:59;;;;;;;1.85;0.50;;;;;;;;;;5019386;28;20479;-83
2023/03/10 11:49:42;;;;;;;2.97;0.55;;;;;;;;;;5018313;28;20037;-85
2023/03/10 11:52:17;;;;;;;0.95;0.35;;;;;;;;;;5017616;28;20168;-84
2023/03/10 11:54:59;;;;;;;3.90;0.60;;;;;;;;;;5017147;28;20026;-82
2023/03/10 11:57:26;;;;;;;;;;;;;;;;;;5017239;28;20037;-84
2023/03/10 11:59:55;;;;;;;4.13;0.90;;;;;;;;;;5022097;28;19959;-85
2023/03/10 12:02:36;;;;;;;4.22;1.10;;;;;;;;;;5014978;28;20018;-84
2023/03/10 12:05:34;;;;;;;5.97;0.70;;;;;;;;;;5014762;28;20046;-84
2023/03/10 12:08:03;;;;;;;2.95;1.23;;;;;;;;;;5014166;28;20056;-82
2023/03/10 12:10:30;;;;;;;2.13;0.77;;;;;;;;;;5009447;28;20034;-83
2023/03/10 12:12:57;;;;;;;1.00;0.52;;;;;;;;;;5037213;28;20100;-84
2023/03/10 12:15:34;;;;;;;3.83;0.73;;;;;;;;;;5016539;28;20298;-84
2023/03/10 12:18:04;;;;;;;0.68;0.43;;;;;;;;;;5008859;28;20041;-83
2023/03/10 12:20:31;;;;;;;5.50;0.82;;;;;;;;;;5015681;28;20481;-85
2023/03/10 12:23:25;;;;;;;1.33;0.68;;;;;;;;;;5016934;28;20014;-83
2023/03/10 12:25:51;;;;;;;3.55;0.90;;;;;;;;;;5019968;28;20084;-81
2023/03/10 12:28:23;;;;;;;2.60;0.88;;;;;;;;;;5016553;28;20038;-84
2023/03/10 12:30:51;;;;;;;;;;;;;;;;;;5013678;28;20019;-84
2023/03/10 12:33:41;;;;;;;1.38;0.63;;;;;;;;;;5007920;28;19913;-83
2023/03/10 12:36:35;;;;;;;4.03;0.60;;;;;;;;;;5018129;28;20061;-83
2023/03/10 12:39:25;;;;;;;3.03;0.70;;;;;;;;;;5019542;28;20022;-84
2023/03/10 12:41:55;;;;;;;1.05;0.80;;;;;;;;;;5018550;28;20030;-82
2023/03/10 12:44:46;;;;;;;1.95;0.50;;;;;;;;;;5020709;28;20034;-84
2023/03/10 12:47:14;;;;;;;3.30;1.58;;;;;;;;;;5015930;28;20044;-83
2023/03/10 12:49:40;;;;;;;4.65;0.70;;;;;;;;;;5015911;28;20049;-84
2023/03/10 12:52:05;;;;;;;2.72;0.73;;;;;;;;;;5015274;28;20049;-81
2023/03/10 12:54:52;;;;;;;4.93;0.88;;;;;;;;;;5020167;28;20086;-84
2023/03/10 12:57:45;;;;;;;1.40;0.80;;;;;;;;;;5014977;28;20030;-83
2023/03/10 13:00:38;;;;;;;1.27;0.80;;;;;;;;;;5019378;28;20054;-86
2023/03/10 13:03:18;;;;;;;2.13;0.80;;;;;;;;;;5026761;28;20128;-85
2023/03/10 13:06:06;;;;;;;4.65;0.60;;;;;;;;;;5015548;28;20022;-86
2023/03/10 13:08:46;;;;;;;2.35;0.43;;;;;;;;;;5008832;28;20031;-84
2023/03/10 13:11:36;;;;;;;3.58;0.60;;;;;;;;;;5015070;28;20070;-83
2023/03/10 13:14:08;;;;;;;3.28;0.60;;;;;;;;;;5010194;28;20121;-85
2023/03/10 13:16:35;;;;;;;1.98;0.50;;;;;;;;;;5012397;28;20038;-84
2023/03/10 13:19:02;;;;;;;2.13;0.80;;;;;;;;;;4995821;28;20286;-84
2023/03/10 13:21:38;;;;;;;1.85;0.70;;;;;;;;;;5012720;28;20026;-83
2023/03/10 13:24:31;;;;;;;2.35;0.90;;;;;;;;;;5012603;28;20036;-83
2023/03/10 13:27:14;;;;;;;0.57;0.50;;;;;;;;;;5011547;28;20065;-84
2023/03/10 13:30:04;;;;;;;1.05;0.30;;;;;;;;;;5012846;28;20025;-82
2023/03/10 13:32:31;;;;;;;0.63;0.50;;;;;;;;;;5007997;28;20462;-82
2023/03/10 13:34:57;;;;;;;0.20;0.20;;;;;;;;;;5010555;28;20128;-83
2023/03/10 13:37:23;;;;;;;0.40;0.40;;;;;;;;;;5008474;28;20058;-85
2023/03/10 13:39:49;;;;;;;1.42;0.77;;;;;;;;;;5010995;28;20627;-84
2023/03/10 13:42:32;;;;;;;1.13;0.52;;;;;;;;;;5008027;28;20034;-88
2023/03/10 13:44:58;;;;;;;3.13;0.50;;;;;;;;;;5015659;28;20022;-87
2023/03/10 13:47:25;;;;;;;0.88;0.45;;;;;;;;;;5012163;28;20037;-84
2023/03/10 13:50:00;;;;;;;0.75;0.30;;;;;;;;;;5013641;28;20513;-88
2023/03/10 13:52:28;;;;;;;1.48;0.63;;;;;;;;;;5015241;28;20483;-83
2023/03/10 13:55:14;;;;;;;0.73;0.60;;;;;;;;;;5007782;28;20018;-83
2023/03/10 13:57:41;;;;;;;0.95;0.70;;;;;;;;;;5003758;28;20045;-81
2023/03/10 14:00:14;;;;;;;2.53;0.95;;;;;;;;;;5012157;28;20529;-86
2023/03/10 14:02:42;;;;;;;2.42;0.70;;;;;;;;;;5020251;28;20030;-85
2023/03/10 14:05:36;;;;;;;2.63;0.68;;;;;;;;;;5017752;28;20355;-86
2023/03/10 14:08:03;;;;;;;1.90;0.55;;;;;;;;;;5014531;28;20034;-87
2023/03/10 14:10:29;;;;;;;2.53;0.73;;;;;;;;;;5011061;28;20059;-84
2023/03/10 14:12:54;;;;;;;1.48;0.50;;;;;;;;;;5010592;28;20044;-86
2023/03/10 14:15:27;;;;;;;2.80;0.80;;;;;;;;;;5007988;28;20045;-85
2023/03/10 14:18:08;;;;;;;22.48;3.00;;;;;;;;;;5014413;28;20099;-86
2023/03/10 14:20:41;;;;;;;0.70;0.50;;;;;;;;;;5018633;28;20208;-88
2023/03/10 14:23:21;;;;;;;4.57;0.70;;;;;;;;;;5015687;28;20033;-87
2023/03/10 14:25:54;;;;;;;3.20;0.70;;;;;;;;;;5015514;28;20037;-86
2023/03/10 14:28:25;;;;;;;2.60;0.85;;;;;;;;;;5018658;28;20033;-86
2023/03/10 14:30:50;;;;;;;2.47;0.50;;;;;;;;;;5012025;28;20046;-87
2023/03/10 14:33:16;;;;;;;0.70;0.60;;;;;;;;;;5033329;28;20124;-85
2023/03/10 14:35:42;;;;;;;0.90;0.52;;;;;;;;;;5016350;28;20030;-85
2023/03/10 14:38:08;;;;;;;2.90;0.63;;;;;;;;;;5027561;28;20030;-86
2023/03/10 14:40:39;;;;;;;1.35;0.45;;;;;;;;;;5012890;28;20132;-87
2023/03/10 14:43:05;;;;;;;0.85;0.45;;;;;;;;;;5018381;28;20095;-88
2023/03/10 14:45:33;;;;;;;1.00;0.40;;;;;;;;;;5023718;28;20490;-86
2023/03/10 14:48:02;;;;;;;0.75;0.75;;;;;;;;;;4997602;28;20029;-84
2023/03/10 14:50:29;;;;;;;2.30;0.63;;;;;;;;;;5014556;28;20354;-89
2023/03/10 14:52:54;;;;;;;1.65;1.00;;;;;;;;;;5015849;28;20022;-82
2023/03/10 14:55:22;;;;;;;2.38;0.90;;;;;;;;;;5012488;28;20426;-87
2023/03/10 14:57:52;;;;;;;1.27;0.80;;;;;;;;;;5017913;28;20037;-84
2023/03/10 15:00:20;;;;;;;4.45;0.60;;;;;;;;;;5017341;28;20026;-85